Have a Safe July 4th! 

Flight Track Log - Related Links

Times and Time Zones

All times are in EDT time to prevent confusion due to time zone crossing. See the BER6776 flight status page for this flight to view local times or setup timezone preferences in your user account.

Time Position Orientation Groundspeed Altitude Reporting Facility
EDT Latitude Longitude Course Direction KTS MPH feet Rate Location/Type
Wed 02:57:00 PM 50.6885 8.2941 121° Southeast  Level Estimated
Wed 02:58:00 PM 50.6563 8.3734 123° Southeast  Level Estimated
Wed 02:59:00 PM 50.6241 8.4526 123° Southeast  Level Estimated
Wed 03:00:00 PM 50.5918 8.5317 123° Southeast  Level Estimated
Wed 03:01:00 PM 50.5595 8.6107 123° Southeast  Level Estimated
Wed 03:02:00 PM 50.5271 8.6895 123° Southeast  Level Estimated
Wed 03:03:00 PM 50.4947 8.7683 123° Southeast  Level Estimated
Wed 03:04:00 PM 50.4622 8.8469 123° Southeast  Level Estimated
Wed 03:05:00 PM 50.4296 8.9255 123° Southeast  Level Estimated
Wed 03:06:00 PM 50.3970 9.0039 123° Southeast  Level Estimated
Wed 03:07:00 PM 50.3644 9.0822 123° Southeast  Level Estimated
Wed 03:08:00 PM 50.3317 9.1604 123° Southeast  Level Estimated
Wed 03:09:00 PM 50.2989 9.2385 123° Southeast  Level Estimated
Wed 03:10:00 PM 50.2661 9.3165 123° Southeast  Level Estimated
Wed 03:11:00 PM 50.2332 9.3944 123° Southeast  Level Estimated
Wed 03:12:00 PM 50.2003 9.4722 123° Southeast  Level Estimated
Wed 03:13:00 PM 50.1674 9.5499 124° Southeast  Level Estimated
Wed 03:14:00 PM 50.1343 9.6274 124° Southeast  Level Estimated
Wed 03:15:00 PM 50.1013 9.7049 124° Southeast  Level Estimated
Wed 03:16:00 PM 50.0681 9.7823 124° Southeast  Level Estimated
Wed 03:17:00 PM 50.0350 9.8595 124° Southeast  Level Estimated
Wed 03:18:00 PM 50.0018 9.9367 124° Southeast  Level Estimated
Wed 03:19:00 PM 49.9685 10.0137 124° Southeast  Level Estimated
Wed 03:20:00 PM 49.9351 10.0906 124° Southeast  Level Estimated
Wed 03:21:00 PM 49.9018 10.1674 124° Southeast  Level Estimated
Wed 03:22:00 PM 49.8683 10.2441 124° Southeast  Level Estimated
Wed 03:23:00 PM 49.8349 10.3208 124° Southeast  Level Estimated
Wed 03:24:00 PM 49.8013 10.3973 124° Southeast  Level Estimated
Wed 03:25:00 PM 49.7677 10.4736 124° Southeast  Level Estimated
Wed 03:26:00 PM 49.7341 10.5499 124° Southeast  Level Estimated
Wed 03:27:00 PM 49.7004 10.6261 124° Southeast  Level Estimated
Wed 03:28:00 PM 49.6667 10.7022 124° Southeast  Level Estimated
Wed 03:29:00 PM 49.6329 10.7782 124° Southeast  Level Estimated
Wed 03:30:00 PM 49.5991 10.8541 125° Southeast  Level Estimated
Wed 03:31:00 PM 49.5652 10.9298 125° Southeast  Level Estimated
Wed 03:32:00 PM 49.5313 11.0055 125° Southeast  Level Estimated
Wed 03:33:00 PM 49.4986 11.0781 125° Southeast  Level Estimated
Wed 03:34:00 PM 49.4986 11.0781 327° Northwest  Level Estimated
Wed 03:35:00 PM 49.4986 11.0781 327° Northwest  Level Estimated

Login

Don't have an account? Register now (free) for customized features, flight alerts, and more!